Time;durP1;ratioP1;P1;durP2;ratioP2;P2;SDS_P1;SDS_P2;PMS_P1;PMS_P2;Temp;Humidity;BMP_temperature;BMP_pressure;BME280_temperature;BME280_humidity;BME280_pressure;Samples;Min_cycle;Max_cycle;Signal;HPM_P1;HPM_P2
2023/03/19 00:00:21;;;;;;;8.00;7.30;;;;;;;;;;5060383;28;20202;-76
2023/03/19 00:02:50;;;;;;;7.33;6.73;;;;;;;;;;5057724;28;20228;-77
2023/03/19 00:05:15;;;;;;;8.67;7.87;;;;;;;;;;5058146;28;20180;-77
2023/03/19 00:07:40;;;;;;;7.80;7.10;;;;;;;;;;5053267;28;20469;-77
2023/03/19 00:10:06;;;;;;;8.40;7.60;;;;;;;;;;5056931;28;20179;-77
2023/03/19 00:12:31;;;;;;;8.23;7.43;;;;;;;;;;5060469;28;20185;-77
2023/03/19 00:14:56;;;;;;;8.47;7.67;;;;;;;;;;5055338;28;20209;-77
2023/03/19 00:17:22;;;;;;;8.20;7.43;;;;;;;;;;5062051;28;20196;-76
2023/03/19 00:19:47;;;;;;;8.20;7.50;;;;;;;;;;5057438;28;20188;-77
2023/03/19 00:22:12;;;;;;;9.30;8.50;;;;;;;;;;5055854;28;20675;-78
2023/03/19 00:24:38;;;;;;;9.00;8.10;;;;;;;;;;5056552;28;20668;-77
2023/03/19 00:27:03;;;;;;;9.83;8.93;;;;;;;;;;5060308;28;20198;-77
2023/03/19 00:29:28;;;;;;;9.33;8.53;;;;;;;;;;5056472;28;20213;-77
2023/03/19 00:31:54;;;;;;;9.30;8.50;;;;;;;;;;5055480;28;20178;-77
2023/03/19 00:34:19;;;;;;;9.27;8.47;;;;;;;;;;5058315;28;20203;-77
2023/03/19 00:36:45;;;;;;;8.80;8.10;;;;;;;;;;5059353;28;20192;-78
2023/03/19 00:39:11;;;;;;;9.20;8.27;;;;;;;;;;5056573;28;20555;-77
2023/03/19 00:41:36;;;;;;;10.03;9.17;;;;;;;;;;5055529;28;20179;-78
2023/03/19 00:44:02;;;;;;;9.93;9.03;;;;;;;;;;5059830;28;20413;-77
2023/03/19 00:46:28;;;;;;;9.37;8.53;;;;;;;;;;5055962;28;20175;-78
2023/03/19 00:48:54;;;;;;;8.63;7.73;;;;;;;;;;5053558;28;20462;-77
2023/03/19 00:51:20;;;;;;;8.57;7.83;;;;;;;;;;5056240;28;20176;-77
2023/03/19 00:53:45;;;;;;;8.87;7.97;;;;;;;;;;5056174;28;20406;-78
2023/03/19 00:56:12;;;;;;;8.90;8.00;;;;;;;;;;5056147;28;20713;-76
2023/03/19 00:58:37;;;;;;;10.10;8.87;;;;;;;;;;5057892;28;20701;-77
2023/03/19 01:01:03;;;;;;;9.37;8.57;;;;;;;;;;5057155;28;20479;-77
2023/03/19 01:03:28;;;;;;;9.50;8.37;;;;;;;;;;5054095;28;20202;-77
2023/03/19 01:05:54;;;;;;;10.00;9.00;;;;;;;;;;5052690;28;20980;-77
2023/03/19 01:08:19;;;;;;;9.80;8.90;;;;;;;;;;5052823;28;20289;-77
2023/03/19 01:10:45;;;;;;;9.00;8.20;;;;;;;;;;5055641;28;20167;-77
2023/03/19 01:13:11;;;;;;;9.23;8.37;;;;;;;;;;5057121;28;20225;-77
2023/03/19 01:15:40;;;;;;;10.50;9.60;;;;;;;;;;5056401;28;20671;-77
2023/03/19 01:18:06;;;;;;;9.90;9.03;;;;;;;;;;5055806;28;20456;-77
2023/03/19 01:20:32;;;;;;;9.60;8.70;;;;;;;;;;5056222;28;20410;-78
2023/03/19 01:22:57;;;;;;;10.07;9.17;;;;;;;;;;5056405;28;20418;-77
2023/03/19 01:25:23;;;;;;;10.00;8.97;;;;;;;;;;5054900;28;20172;-77
2023/03/19 01:27:49;;;;;;;10.57;9.53;;;;;;;;;;5055714;28;20195;-77
2023/03/19 01:30:14;;;;;;;9.90;9.00;;;;;;;;;;5057945;28;20910;-77
2023/03/19 01:32:40;;;;;;;9.10;8.30;;;;;;;;;;5064594;22;20592;-71
2023/03/19 01:35:05;;;;;;;10.70;9.70;;;;;;;;;;5056699;28;20167;-71
2023/03/19 01:37:31;;;;;;;10.47;9.20;;;;;;;;;;5054749;28;20171;-71
2023/03/19 01:39:57;;;;;;;11.03;10.03;;;;;;;;;;5050998;28;20172;-71
2023/03/19 01:42:22;;;;;;;11.93;9.60;;;;;;;;;;5056820;28;20445;-71
2023/03/19 01:44:48;;;;;;;9.87;8.90;;;;;;;;;;5054164;28;20175;-71
2023/03/19 01:47:15;;;;;;;10.07;9.17;;;;;;;;;;5052671;28;20770;-71
2023/03/19 01:49:41;;;;;;;10.23;9.23;;;;;;;;;;5053056;28;20199;-71
2023/03/19 01:52:07;;;;;;;10.00;9.10;;;;;;;;;;5055842;28;20811;-71
2023/03/19 01:54:33;;;;;;;11.30;10.20;;;;;;;;;;5058552;28;20171;-71
2023/03/19 01:57:01;;;;;;;10.37;9.37;;;;;;;;;;5054727;28;20172;-71
2023/03/19 01:59:31;;;;;;;11.10;10.20;;;;;;;;;;5056485;28;20422;-71
2023/03/19 02:02:02;;;;;;;11.50;10.40;;;;;;;;;;5056466;28;20810;-71
2023/03/19 02:04:28;;;;;;;11.67;10.67;;;;;;;;;;5054316;28;20444;-71
2023/03/19 02:06:57;;;;;;;11.57;10.57;;;;;;;;;;5056476;28;20419;-71
2023/03/19 02:09:23;;;;;;;11.20;10.10;;;;;;;;;;5054462;28;20831;-71
2023/03/19 02:11:49;;;;;;;11.00;10.03;;;;;;;;;;5057213;28;20503;-71
2023/03/19 02:14:15;;;;;;;10.60;9.70;;;;;;;;;;5067041;28;20425;-71
2023/03/19 02:16:41;;;;;;;11.73;10.57;;;;;;;;;;5053062;28;21267;-71
2023/03/19 02:19:08;;;;;;;11.67;10.47;;;;;;;;;;5056551;28;20175;-71
2023/03/19 02:21:33;;;;;;;11.00;10.00;;;;;;;;;;5053422;28;20646;-71
2023/03/19 02:24:02;;;;;;;12.50;11.30;;;;;;;;;;5056857;28;20438;-71
2023/03/19 02:26:28;;;;;;;11.47;10.47;;;;;;;;;;5053954;28;20176;-71
2023/03/19 02:28:54;;;;;;;13.50;11.03;;;;;;;;;;5053922;28;20540;-71
2023/03/19 02:31:19;;;;;;;11.47;10.30;;;;;;;;;;5052757;28;20525;-71
2023/03/19 02:34:03;;;;;;;11.40;10.40;;;;;;;;;;5052328;28;20746;-71
2023/03/19 02:36:36;;;;;;;11.97;10.77;;;;;;;;;;5052554;28;20226;-72
2023/03/19 02:39:02;;;;;;;11.87;10.87;;;;;;;;;;5040103;28;20441;-72
2023/03/19 02:41:28;;;;;;;12.60;11.30;;;;;;;;;;5056525;28;20425;-71
2023/03/19 02:43:54;;;;;;;12.70;11.60;;;;;;;;;;5054411;28;20436;-71
2023/03/19 02:46:19;;;;;;;12.40;11.27;;;;;;;;;;5069284;28;20421;-71
2023/03/19 02:48:45;;;;;;;12.60;11.40;;;;;;;;;;5049784;28;20207;-72
2023/03/19 02:51:10;;;;;;;12.40;11.13;;;;;;;;;;5053262;28;20588;-71
2023/03/19 02:53:35;;;;;;;12.50;11.30;;;;;;;;;;5054911;28;20736;-71
2023/03/19 02:56:01;;;;;;;11.60;10.60;;;;;;;;;;5050641;28;20176;-71
2023/03/19 02:58:26;;;;;;;12.30;11.20;;;;;;;;;;5049885;28;20230;-71
2023/03/19 03:00:52;;;;;;;13.13;11.87;;;;;;;;;;5070708;28;20195;-71
2023/03/19 03:03:17;;;;;;;12.90;11.60;;;;;;;;;;5040020;28;20697;-71
2023/03/19 03:05:43;;;;;;;12.07;10.87;;;;;;;;;;5066780;28;20263;-71
2023/03/19 03:08:09;;;;;;;11.93;10.93;;;;;;;;;;5052472;28;20207;-71
2023/03/19 03:10:34;;;;;;;12.97;11.67;;;;;;;;;;5051775;28;20638;-71
2023/03/19 03:13:00;;;;;;;12.57;11.27;;;;;;;;;;5048665;28;20450;-71
2023/03/19 03:15:25;;;;;;;17.83;12.30;;;;;;;;;;5054947;28;20178;-71
2023/03/19 03:17:51;;;;;;;11.40;10.27;;;;;;;;;;5049071;28;20653;-71
2023/03/19 03:20:16;;;;;;;12.37;10.70;;;;;;;;;;5069024;28;20648;-71
2023/03/19 03:22:42;;;;;;;11.30;10.10;;;;;;;;;;5053428;28;20242;-71
2023/03/19 03:25:09;;;;;;;12.67;11.47;;;;;;;;;;5055092;28;20601;-71
2023/03/19 03:27:34;;;;;;;12.73;11.63;;;;;;;;;;5053685;28;20456;-71
2023/03/19 03:30:00;;;;;;;12.13;11.00;;;;;;;;;;5050867;28;20402;-71
2023/03/19 03:32:26;;;;;;;13.43;12.13;;;;;;;;;;5053568;28;20277;-71
2023/03/19 03:34:51;;;;;;;13.67;12.40;;;;;;;;;;5053064;28;20194;-71
2023/03/19 03:37:18;;;;;;;14.37;12.93;;;;;;;;;;5049170;28;20429;-71
2023/03/19 03:39:43;;;;;;;12.83;11.63;;;;;;;;;;5064152;28;20182;-71
2023/03/19 03:42:08;;;;;;;12.17;10.97;;;;;;;;;;5055063;28;20517;-71
2023/03/19 03:44:34;;;;;;;12.67;11.40;;;;;;;;;;5053334;28;20260;-71
2023/03/19 03:47:00;;;;;;;12.60;11.30;;;;;;;;;;5053844;28;20225;-71
2023/03/19 03:49:26;;;;;;;12.97;11.10;;;;;;;;;;5054109;28;20457;-71
2023/03/19 03:51:51;;;;;;;12.50;11.20;;;;;;;;;;5050195;28;20186;-71
2023/03/19 03:54:16;;;;;;;12.20;11.00;;;;;;;;;;5051508;28;20179;-71
2023/03/19 03:56:42;;;;;;;14.23;12.83;;;;;;;;;;5050533;28;20176;-71
2023/03/19 03:59:08;;;;;;;12.97;11.77;;;;;;;;;;5063221;28;20601;-71
2023/03/19 04:01:33;;;;;;;13.90;12.60;;;;;;;;;;5046731;28;20719;-71
2023/03/19 04:03:59;;;;;;;13.30;12.10;;;;;;;;;;5055986;28;20410;-71
2023/03/19 04:06:25;;;;;;;13.40;12.27;;;;;;;;;;5053153;28;20196;-71
2023/03/19 04:08:51;;;;;;;13.90;12.60;;;;;;;;;;5052157;28;20206;-71
2023/03/19 04:11:17;;;;;;;14.57;13.27;;;;;;;;;;5065358;28;20525;-71
2023/03/19 04:13:42;;;;;;;14.00;12.60;;;;;;;;;;5053250;28;20191;-71
2023/03/19 04:16:11;;;;;;;12.10;11.00;;;;;;;;;;5052196;28;20587;-71
2023/03/19 04:18:36;;;;;;;13.50;12.20;;;;;;;;;;5051275;28;20183;-71
2023/03/19 04:21:02;;;;;;;13.40;12.10;;;;;;;;;;5053755;28;20436;-71
2023/03/19 04:23:28;;;;;;;13.10;11.90;;;;;;;;;;5053526;28;20206;-71
2023/03/19 04:25:57;;;;;;;12.80;11.60;;;;;;;;;;5049943;28;20409;-71
2023/03/19 04:28:23;;;;;;;12.93;11.73;;;;;;;;;;5056267;28;20233;-71
2023/03/19 04:30:48;;;;;;;13.43;12.13;;;;;;;;;;5072191;28;20459;-71
2023/03/19 04:33:13;;;;;;;13.40;12.10;;;;;;;;;;5056367;28;20462;-71
2023/03/19 04:35:39;;;;;;;14.40;13.03;;;;;;;;;;5053962;28;20175;-71
2023/03/19 04:38:04;;;;;;;13.73;12.37;;;;;;;;;;5056447;28;20179;-71
2023/03/19 04:40:29;;;;;;;13.37;12.17;;;;;;;;;;5058765;28;20186;-71
2023/03/19 04:42:55;;;;;;;14.47;12.87;;;;;;;;;;5060439;28;20202;-71
2023/03/19 04:45:20;;;;;;;16.70;14.23;;;;;;;;;;5060715;28;20172;-71
2023/03/19 04:47:45;;;;;;;14.30;12.80;;;;;;;;;;5062552;28;20191;-71
2023/03/19 04:50:11;;;;;;;13.03;11.83;;;;;;;;;;5060603;28;20183;-71
2023/03/19 04:52:38;;;;;;;13.53;12.20;;;;;;;;;;5060525;28;20195;-72
2023/03/19 04:55:04;;;;;;;13.77;12.57;;;;;;;;;;5075534;28;20414;-71
2023/03/19 04:57:29;;;;;;;14.97;13.37;;;;;;;;;;5063766;28;20917;-71
2023/03/19 04:59:55;;;;;;;15.10;11.93;;;;;;;;;;5064235;28;20417;-71
2023/03/19 05:02:20;;;;;;;15.20;13.60;;;;;;;;;;5055068;28;20197;-71
2023/03/19 05:04:46;;;;;;;15.17;13.67;;;;;;;;;;5061220;28;20710;-71
2023/03/19 05:07:11;;;;;;;13.63;12.23;;;;;;;;;;5059687;28;20686;-71
2023/03/19 05:09:36;;;;;;;14.13;12.83;;;;;;;;;;5060901;28;20269;-71
2023/03/19 05:12:01;;;;;;;12.93;11.73;;;;;;;;;;5062444;28;20547;-71
2023/03/19 05:14:27;;;;;;;13.97;12.30;;;;;;;;;;5064481;28;20175;-71
2023/03/19 05:16:53;;;;;;;13.47;12.17;;;;;;;;;;5061132;28;20309;-71
2023/03/19 05:19:18;;;;;;;13.80;12.40;;;;;;;;;;5056807;28;20189;-71
2023/03/19 05:21:44;;;;;;;12.93;11.63;;;;;;;;;;5059984;28;21088;-71
2023/03/19 05:24:09;;;;;;;13.47;11.87;;;;;;;;;;5060962;28;20183;-71
2023/03/19 05:26:34;;;;;;;11.87;10.60;;;;;;;;;;5061354;28;20579;-71
2023/03/19 05:29:00;;;;;;;12.00;10.80;;;;;;;;;;5060483;28;20202;-72
2023/03/19 05:31:25;;;;;;;13.40;11.70;;;;;;;;;;5060668;28;20701;-73
2023/03/19 05:33:50;;;;;;;10.87;9.77;;;;;;;;;;5058701;28;20219;-72
2023/03/19 05:36:16;;;;;;;11.23;10.03;;;;;;;;;;5057078;28;20215;-72
2023/03/19 05:38:42;;;;;;;12.53;10.57;;;;;;;;;;5050023;28;20608;-72
2023/03/19 05:41:07;;;;;;;10.93;9.93;;;;;;;;;;5059431;28;20504;-71
2023/03/19 05:43:32;;;;;;;12.13;10.60;;;;;;;;;;5057830;28;20620;-72
2023/03/19 05:45:58;;;;;;;10.60;9.60;;;;;;;;;;5060415;28;20175;-72
2023/03/19 05:48:24;;;;;;;10.40;9.40;;;;;;;;;;5057838;28;20318;-72
2023/03/19 05:50:50;;;;;;;10.60;9.60;;;;;;;;;;5059487;28;20673;-72
2023/03/19 05:53:17;;;;;;;13.33;11.63;;;;;;;;;;5056086;28;20461;-72
2023/03/19 05:55:42;;;;;;;11.57;10.13;;;;;;;;;;5059852;28;20237;-72
2023/03/19 05:58:07;;;;;;;11.63;10.47;;;;;;;;;;5058149;28;20426;-71
2023/03/19 06:00:33;;;;;;;11.20;10.13;;;;;;;;;;5059998;28;20271;-72
2023/03/19 06:02:58;;;;;;;11.23;10.13;;;;;;;;;;5060451;28;20583;-72
2023/03/19 06:05:23;;;;;;;11.57;10.40;;;;;;;;;;5058859;28;20186;-72
2023/03/19 06:07:49;;;;;;;11.70;10.60;;;;;;;;;;5051599;28;20464;-72
2023/03/19 06:10:14;;;;;;;14.87;10.80;;;;;;;;;;5059393;28;20692;-71
2023/03/19 06:12:40;;;;;;;11.90;10.30;;;;;;;;;;5072573;28;20206;-72
2023/03/19 06:15:05;;;;;;;13.07;11.70;;;;;;;;;;5059957;28;20687;-71
2023/03/19 06:17:31;;;;;;;12.17;10.93;;;;;;;;;;5057830;28;20183;-72
2023/03/19 06:19:56;;;;;;;12.10;10.90;;;;;;;;;;5057677;28;20179;-72
2023/03/19 06:22:21;;;;;;;12.33;11.20;;;;;;;;;;5058421;28;20686;-72
2023/03/19 06:24:46;;;;;;;12.80;11.03;;;;;;;;;;5060581;28;20167;-72
2023/03/19 06:27:12;;;;;;;11.40;10.40;;;;;;;;;;5053880;28;20270;-72
2023/03/19 06:29:37;;;;;;;10.90;9.90;;;;;;;;;;5057989;28;20204;-71
2023/03/19 06:32:03;;;;;;;11.13;10.03;;;;;;;;;;5058041;28;20216;-71
2023/03/19 06:34:28;;;;;;;11.60;10.23;;;;;;;;;;5049324;28;20178;-71
2023/03/19 06:36:54;;;;;;;11.47;9.83;;;;;;;;;;5057208;28;20175;-71
2023/03/19 06:39:20;;;;;;;12.10;9.97;;;;;;;;;;5050352;28;20295;-72
2023/03/19 06:41:45;;;;;;;11.00;10.00;;;;;;;;;;5054087;28;20320;-71
2023/03/19 06:44:11;;;;;;;9.77;8.80;;;;;;;;;;5057780;28;20509;-72
2023/03/19 06:46:36;;;;;;;10.20;9.10;;;;;;;;;;5057666;28;20179;-71
2023/03/19 06:49:02;;;;;;;10.20;9.17;;;;;;;;;;5056944;28;20207;-71
2023/03/19 06:51:27;;;;;;;9.90;8.90;;;;;;;;;;5056743;28;20642;-72
2023/03/19 06:53:52;;;;;;;9.60;8.70;;;;;;;;;;5058830;28;20578;-71
2023/03/19 06:56:18;;;;;;;10.20;9.10;;;;;;;;;;5059577;28;20295;-72
2023/03/19 06:58:43;;;;;;;10.03;9.07;;;;;;;;;;5059702;28;20658;-72
2023/03/19 07:01:08;;;;;;;8.57;7.77;;;;;;;;;;5057148;28;20191;-72
2023/03/19 07:03:33;;;;;;;9.20;8.30;;;;;;;;;;5053854;28;20221;-71
2023/03/19 07:05:59;;;;;;;10.27;8.20;;;;;;;;;;5055046;28;20599;-71
2023/03/19 07:08:28;;;;;;;13.20;11.57;;;;;;;;;;5055942;28;20202;-71
2023/03/19 07:10:54;;;;;;;10.83;9.73;;;;;;;;;;5058213;28;20188;-72
2023/03/19 07:13:20;;;;;;;9.17;8.27;;;;;;;;;;5055049;28;20454;-72
2023/03/19 07:15:45;;;;;;;9.53;7.33;;;;;;;;;;5053856;28;20186;-72
2023/03/19 07:18:11;;;;;;;10.43;7.67;;;;;;;;;;5057763;28;20892;-72
2023/03/19 07:20:36;;;;;;;7.37;6.67;;;;;;;;;;5056443;28;20234;-72
2023/03/19 07:23:02;;;;;;;7.63;6.77;;;;;;;;;;5053953;28;20584;-71
2023/03/19 07:25:27;;;;;;;6.90;6.20;;;;;;;;;;5055072;28;20188;-72
2023/03/19 07:27:52;;;;;;;7.50;6.57;;;;;;;;;;5056335;28;20662;-72
2023/03/19 07:30:18;;;;;;;7.67;6.50;;;;;;;;;;5055334;28;20592;-72
2023/03/19 07:32:43;;;;;;;6.50;5.90;;;;;;;;;;5061304;22;20317;-78
2023/03/19 07:35:09;;;;;;;7.70;6.57;;;;;;;;;;5035564;28;20195;-79
2023/03/19 07:37:36;;;;;;;6.67;6.03;;;;;;;;;;5026584;28;20180;-79
2023/03/19 07:40:01;;;;;;;9.13;7.20;;;;;;;;;;5027959;28;20439;-79
2023/03/19 07:42:26;;;;;;;6.90;6.17;;;;;;;;;;5035785;28;20534;-79
2023/03/19 07:44:51;;;;;;;7.43;6.33;;;;;;;;;;5027410;28;20227;-78
2023/03/19 07:47:17;;;;;;;8.03;6.40;;;;;;;;;;5029556;28;20274;-78
2023/03/19 07:49:42;;;;;;;7.43;6.73;;;;;;;;;;5038755;28;20196;-79
2023/03/19 07:52:07;;;;;;;7.10;6.40;;;;;;;;;;5029878;28;20599;-78
2023/03/19 07:54:33;;;;;;;8.37;7.50;;;;;;;;;;5034999;28;20199;-78
2023/03/19 07:56:58;;;;;;;7.30;6.60;;;;;;;;;;5031657;28;20256;-78
2023/03/19 07:59:23;;;;;;;7.90;6.80;;;;;;;;;;5033255;28;20211;-78
2023/03/19 08:01:49;;;;;;;7.63;6.83;;;;;;;;;;5033339;28;20222;-77
2023/03/19 08:04:14;;;;;;;6.87;6.27;;;;;;;;;;5039690;28;20250;-77
2023/03/19 08:06:39;;;;;;;6.13;5.47;;;;;;;;;;5039093;28;20195;-77
2023/03/19 08:09:05;;;;;;;7.43;6.50;;;;;;;;;;5040482;28;20212;-78
2023/03/19 08:11:31;;;;;;;6.90;6.20;;;;;;;;;;5040166;28;20183;-76
2023/03/19 08:13:56;;;;;;;7.23;6.53;;;;;;;;;;5032468;28;20466;-75
2023/03/19 08:16:21;;;;;;;7.47;6.77;;;;;;;;;;5040113;28;20180;-75
2023/03/19 08:18:47;;;;;;;7.13;6.43;;;;;;;;;;5035736;28;20706;-76
2023/03/19 08:21:12;;;;;;;7.90;7.10;;;;;;;;;;5040133;28;20263;-76
2023/03/19 08:23:37;;;;;;;6.23;5.63;;;;;;;;;;5037423;28;20545;-76
2023/03/19 08:26:03;;;;;;;6.07;5.50;;;;;;;;;;5036686;28;20185;-78
2023/03/19 08:28:28;;;;;;;8.00;6.47;;;;;;;;;;5038450;28;20205;-79
2023/03/19 08:30:54;;;;;;;8.33;6.60;;;;;;;;;;5035987;28;20180;-78
2023/03/19 08:33:20;;;;;;;7.00;6.30;;;;;;;;;;5031122;28;20215;-79
2023/03/19 08:35:45;;;;;;;7.10;6.40;;;;;;;;;;5013891;28;20446;-80
2023/03/19 08:38:10;;;;;;;9.10;6.63;;;;;;;;;;5032051;28;20393;-79
2023/03/19 08:40:36;;;;;;;9.90;7.23;;;;;;;;;;5023790;28;20376;-78
2023/03/19 08:43:02;;;;;;;6.93;6.27;;;;;;;;;;5023574;28;20238;-79
2023/03/19 08:45:28;;;;;;;7.93;6.80;;;;;;;;;;5021622;28;20192;-79
2023/03/19 08:47:53;;;;;;;9.73;7.73;;;;;;;;;;5030225;28;20976;-80
2023/03/19 08:50:18;;;;;;;7.03;6.40;;;;;;;;;;5023304;28;20267;-83
2023/03/19 08:52:44;;;;;;;7.73;7.00;;;;;;;;;;5031886;28;20291;-81
2023/03/19 08:55:09;;;;;;;8.00;7.20;;;;;;;;;;5031115;28;20183;-79
2023/03/19 08:57:35;;;;;;;8.17;7.37;;;;;;;;;;5027424;28;20184;-79
2023/03/19 09:00:00;;;;;;;11.20;7.67;;;;;;;;;;5029283;28;20184;-80
2023/03/19 09:02:26;;;;;;;8.03;7.03;;;;;;;;;;5026455;28;20675;-80
2023/03/19 09:04:51;;;;;;;9.13;8.20;;;;;;;;;;5034665;28;20172;-81
2023/03/19 09:07:16;;;;;;;9.00;8.07;;;;;;;;;;5036303;28;20626;-81
2023/03/19 09:09:42;;;;;;;10.77;9.70;;;;;;;;;;5033107;28;20211;-81
2023/03/19 09:12:09;;;;;;;9.47;8.50;;;;;;;;;;5025690;28;20184;-81
2023/03/19 09:14:34;;;;;;;10.97;8.90;;;;;;;;;;5031907;28;20477;-82
2023/03/19 09:17:00;;;;;;;8.57;7.77;;;;;;;;;;5027624;28;21034;-83
2023/03/19 09:19:25;;;;;;;9.80;8.80;;;;;;;;;;5037391;28;20212;-82
2023/03/19 09:21:51;;;;;;;11.43;8.13;;;;;;;;;;5020975;28;20673;-82
2023/03/19 09:24:17;;;;;;;10.83;9.57;;;;;;;;;;5036900;28;20200;-82
2023/03/19 09:26:42;;;;;;;9.93;8.90;;;;;;;;;;5034759;28;20176;-82
2023/03/19 09:29:08;;;;;;;11.27;9.20;;;;;;;;;;5026721;28;20462;-83
2023/03/19 09:31:33;;;;;;;12.17;10.17;;;;;;;;;;5032839;28;20174;-82
2023/03/19 09:34:01;;;;;;;10.87;9.77;;;;;;;;;;5029838;28;20212;-81
2023/03/19 09:36:26;;;;;;;11.87;10.60;;;;;;;;;;5029190;28;20208;-82
2023/03/19 09:38:51;;;;;;;11.20;10.10;;;;;;;;;;5032365;28;20431;-83
2023/03/19 09:41:25;;;;;;;10.97;9.80;;;;;;;;;;5032280;28;20200;-83
2023/03/19 09:44:01;;;;;;;10.13;9.00;;;;;;;;;;5034635;28;20194;-83
2023/03/19 09:46:31;;;;;;;10.00;9.00;;;;;;;;;;5038344;28;20414;-84
2023/03/19 09:48:59;;;;;;;10.50;9.27;;;;;;;;;;5039072;28;20520;-83
2023/03/19 09:51:29;;;;;;;9.33;8.37;;;;;;;;;;5037492;28;20863;-83
2023/03/19 09:54:00;;;;;;;9.43;8.30;;;;;;;;;;5032614;28;21028;-82
2023/03/19 09:56:26;;;;;;;9.70;8.33;;;;;;;;;;5020634;28;20876;-84
2023/03/19 09:58:52;;;;;;;9.63;8.50;;;;;;;;;;5029093;28;20458;-81
2023/03/19 10:01:35;;;;;;;10.07;8.60;;;;;;;;;;5027725;28;20443;-82
2023/03/19 10:04:20;;;;;;;9.23;8.33;;;;;;;;;;5029986;28;20466;-80
2023/03/19 10:06:45;;;;;;;8.93;8.03;;;;;;;;;;5031234;28;20431;-80
2023/03/19 10:09:17;;;;;;;7.27;6.60;;;;;;;;;;5030570;28;20465;-79
2023/03/19 10:12:01;;;;;;;10.40;8.73;;;;;;;;;;5024344;28;20177;-81
2023/03/19 10:14:35;;;;;;;8.90;7.57;;;;;;;;;;5028556;28;20453;-81
2023/03/19 10:17:01;;;;;;;10.13;8.10;;;;;;;;;;5033772;28;20415;-81
2023/03/19 10:19:58;;;;;;;8.77;7.80;;;;;;;;;;5031485;28;20430;-80
2023/03/19 10:22:50;;;;;;;9.87;8.87;;;;;;;;;;4985073;28;20423;-81
2023/03/19 10:25:18;;;;;;;13.07;8.40;;;;;;;;;;5030954;28;20492;-81
2023/03/19 10:27:45;;;;;;;9.30;7.13;;;;;;;;;;5017627;28;20497;-81
2023/03/19 10:30:12;;;;;;;8.47;7.57;;;;;;;;;;5036763;28;20981;-82
2023/03/19 10:32:40;;;;;;;9.40;7.70;;;;;;;;;;5035145;28;20516;-81
2023/03/19 10:35:16;;;;;;;10.43;7.60;;;;;;;;;;5034963;28;20518;-81
2023/03/19 10:37:42;;;;;;;7.30;6.60;;;;;;;;;;5036874;28;20421;-81
2023/03/19 10:40:16;;;;;;;7.27;6.57;;;;;;;;;;5036812;28;20411;-81
2023/03/19 10:42:55;;;;;;;5.20;4.23;;;;;;;;;;5034324;28;20766;-81
2023/03/19 10:45:27;;;;;;;5.30;4.63;;;;;;;;;;5032123;28;20439;-81
2023/03/19 10:47:54;;;;;;;5.40;4.90;;;;;;;;;;5029049;28;20467;-81
2023/03/19 10:50:27;;;;;;;6.93;4.97;;;;;;;;;;5035931;28;20426;-81
2023/03/19 10:53:13;;;;;;;6.10;5.50;;;;;;;;;;5050890;28;20477;-81
2023/03/19 10:55:43;;;;;;;5.00;4.50;;;;;;;;;;5035024;28;20437;-81
2023/03/19 10:58:16;;;;;;;6.90;5.37;;;;;;;;;;5036513;28;20783;-81
2023/03/19 11:00:45;;;;;;;6.30;5.20;;;;;;;;;;5036279;28;20417;-81
2023/03/19 11:03:30;;;;;;;5.50;5.00;;;;;;;;;;5035524;28;20459;-81
2023/03/19 11:06:14;;;;;;;5.37;4.47;;;;;;;;;;5028991;28;20675;-81
2023/03/19 11:08:40;;;;;;;7.50;5.23;;;;;;;;;;5026233;28;20470;-81
2023/03/19 11:11:05;;;;;;;5.77;5.17;;;;;;;;;;5029036;28;20461;-81
2023/03/19 11:13:33;;;;;;;5.53;5.03;;;;;;;;;;5022716;28;20207;-81
2023/03/19 11:15:59;;;;;;;6.50;5.30;;;;;;;;;;5028348;28;20185;-82
2023/03/19 11:18:28;;;;;;;5.60;4.93;;;;;;;;;;5031979;28;20430;-81
2023/03/19 11:20:54;;;;;;;6.70;6.10;;;;;;;;;;5033060;28;20435;-81
2023/03/19 11:23:20;;;;;;;9.83;5.40;;;;;;;;;;5035030;28;20458;-82
2023/03/19 11:25:46;;;;;;;6.30;5.27;;;;;;;;;;5035578;28;20713;-82
2023/03/19 11:28:16;;;;;;;7.17;5.03;;;;;;;;;;5027950;28;20204;-82
2023/03/19 11:30:44;;;;;;;6.10;5.10;;;;;;;;;;5034567;28;20426;-82
2023/03/19 11:33:09;;;;;;;5.60;5.00;;;;;;;;;;5033954;28;20466;-82
2023/03/19 11:35:43;;;;;;;9.10;5.77;;;;;;;;;;5032192;28;20798;-82
2023/03/19 11:38:14;;;;;;;7.67;5.97;;;;;;;;;;5034964;28;20242;-82
2023/03/19 11:40:40;;;;;;;7.80;5.43;;;;;;;;;;5035170;28;20419;-81
2023/03/19 11:43:14;;;;;;;7.40;5.50;;;;;;;;;;5030127;28;20964;-81
2023/03/19 11:45:46;;;;;;;5.50;4.60;;;;;;;;;;5031643;28;20187;-82
2023/03/19 11:48:18;;;;;;;6.13;4.77;;;;;;;;;;5033253;28;20995;-83
2023/03/19 11:50:56;;;;;;;4.33;3.93;;;;;;;;;;5048898;28;20423;-82
2023/03/19 11:53:23;;;;;;;5.93;4.53;;;;;;;;;;5034371;28;20994;-82
2023/03/19 11:55:48;;;;;;;5.13;4.63;;;;;;;;;;5034369;28;20418;-82
2023/03/19 11:58:32;;;;;;;5.33;4.80;;;;;;;;;;5030753;28;20957;-82
2023/03/19 12:01:19;;;;;;;8.53;5.40;;;;;;;;;;5023767;28;20187;-83
2023/03/19 12:03:53;;;;;;;6.30;5.13;;;;;;;;;;5033806;28;20451;-82
2023/03/19 12:06:18;;;;;;;5.30;4.23;;;;;;;;;;5035976;28;20747;-82
2023/03/19 12:08:48;;;;;;;4.10;3.70;;;;;;;;;;5031675;28;20492;-82
2023/03/19 12:11:21;;;;;;;4.83;4.07;;;;;;;;;;5033333;28;20275;-82
2023/03/19 12:13:54;;;;;;;5.50;4.00;;;;;;;;;;5033963;28;20535;-82
2023/03/19 12:16:39;;;;;;;3.80;3.30;;;;;;;;;;5033500;28;20912;-83
2023/03/19 12:19:07;;;;;;;3.97;3.60;;;;;;;;;;5016223;28;20438;-82
2023/03/19 12:21:45;;;;;;;6.67;4.67;;;;;;;;;;5035321;28;20423;-82
2023/03/19 12:24:27;;;;;;;7.33;3.53;;;;;;;;;;5033178;28;20556;-82
2023/03/19 12:27:08;;;;;;;4.73;4.00;;;;;;;;;;5018447;28;20407;-82
2023/03/19 12:29:47;;;;;;;4.40;3.93;;;;;;;;;;5034546;28;20468;-83
2023/03/19 12:32:21;;;;;;;6.10;4.90;;;;;;;;;;5029688;28;20449;-82
2023/03/19 12:34:49;;;;;;;6.53;5.67;;;;;;;;;;5048809;28;20847;-82
2023/03/19 12:37:15;;;;;;;4.93;4.00;;;;;;;;;;5016527;28;20506;-82
2023/03/19 12:39:43;;;;;;;4.90;4.27;;;;;;;;;;5032840;28;20518;-82
2023/03/19 12:42:12;;;;;;;7.40;4.37;;;;;;;;;;5031097;28;20499;-83
2023/03/19 12:44:46;;;;;;;5.90;4.40;;;;;;;;;;5051728;28;20430;-82
2023/03/19 12:47:17;;;;;;;9.87;5.20;;;;;;;;;;5032745;28;20467;-82
2023/03/19 12:49:46;;;;;;;4.20;3.77;;;;;;;;;;5035894;28;20464;-82
2023/03/19 12:52:11;;;;;;;4.53;4.13;;;;;;;;;;5035749;28;20839;-82
2023/03/19 12:54:43;;;;;;;5.57;4.03;;;;;;;;;;5036646;28;20426;-83
2023/03/19 12:57:16;;;;;;;5.27;4.53;;;;;;;;;;5037815;28;20180;-82
2023/03/19 12:59:52;;;;;;;4.10;3.30;;;;;;;;;;5031306;28;20889;-83
2023/03/19 13:02:50;;;;;;;5.57;4.27;;;;;;;;;;5036385;28;20422;-82
2023/03/19 13:05:25;;;;;;;4.80;3.93;;;;;;;;;;5013519;28;20427;-82
2023/03/19 13:08:01;;;;;;;4.50;3.90;;;;;;;;;;5031825;28;20921;-82
2023/03/19 13:10:29;;;;;;;6.83;4.40;;;;;;;;;;5033594;28;20425;-82
2023/03/19 13:12:55;;;;;;;5.53;4.10;;;;;;;;;;5020603;28;20813;-82
2023/03/19 13:15:27;;;;;;;5.13;4.63;;;;;;;;;;5035252;28;20414;-82
2023/03/19 13:18:11;;;;;;;5.90;5.30;;;;;;;;;;5038341;28;20457;-82
2023/03/19 13:20:49;;;;;;;7.50;5.03;;;;;;;;;;5033479;28;20427;-81
2023/03/19 13:23:19;;;;;;;6.80;4.60;;;;;;;;;;5036552;28;20447;-83
2023/03/19 13:25:47;;;;;;;5.47;4.10;;;;;;;;;;5030885;28;20459;-83
2023/03/19 13:28:19;;;;;;;3.93;3.60;;;;;;;;;;5033788;28;20474;-84
2023/03/19 13:30:58;;;;;;;4.73;4.23;;;;;;;;;;5034897;28;20412;-81
2023/03/19 13:33:23;;;;;;;6.47;3.70;;;;;;;;;;5022980;28;20797;-82
2023/03/19 13:35:49;;;;;;;4.67;4.20;;;;;;;;;;5037060;28;20414;-80
2023/03/19 13:38:14;;;;;;;4.77;4.37;;;;;;;;;;5031948;28;20276;-80
2023/03/19 13:40:44;;;;;;;5.83;4.20;;;;;;;;;;5037178;28;20213;-81
2023/03/19 13:43:21;;;;;;;4.83;4.33;;;;;;;;;;5029589;28;20666;-82
2023/03/19 13:45:51;;;;;;;4.37;3.97;;;;;;;;;;5033890;28;20472;-81
2023/03/19 13:48:23;;;;;;;6.63;4.80;;;;;;;;;;5036277;28;20458;-81
2023/03/19 13:50:52;;;;;;;5.53;5.03;;;;;;;;;;5037103;28;20867;-82
2023/03/19 13:53:33;;;;;;;5.50;4.70;;;;;;;;;;5033314;28;20454;-82
2023/03/19 13:55:59;;;;;;;6.17;4.23;;;;;;;;;;5034024;28;20453;-82
2023/03/19 14:01:22;;;;;;;5.20;4.70;;;;;;;;;;5020129;28;20437;-85
2023/03/19 14:04:01;;;;;;;6.97;5.50;;;;;;;;;;5030208;28;21028;-84
2023/03/19 14:06:35;;;;;;;6.70;5.30;;;;;;;;;;5026102;28;20445;-84
2023/03/19 14:09:01;;;;;;;6.37;5.80;;;;;;;;;;5031705;28;20471;-84
2023/03/19 14:11:32;;;;;;;8.53;6.47;;;;;;;;;;5028241;28;20457;-83
2023/03/19 14:14:12;;;;;;;7.20;6.50;;;;;;;;;;5034357;28;20454;-82
2023/03/19 14:16:41;;;;;;;6.60;5.90;;;;;;;;;;5030907;28;20424;-82
2023/03/19 14:19:10;;;;;;;6.30;5.70;;;;;;;;;;5034650;28;20442;-81
2023/03/19 14:21:36;;;;;;;9.10;6.63;;;;;;;;;;5039963;28;20468;-81
2023/03/19 14:24:20;;;;;;;9.17;7.10;;;;;;;;;;5036743;28;20451;-82
2023/03/19 14:26:45;;;;;;;7.30;6.60;;;;;;;;;;5018874;28;20188;-81
2023/03/19 14:29:13;;;;;;;14.33;12.27;;;;;;;;;;5028309;28;20470;-83
2023/03/19 14:31:53;;;;;;;13.93;12.10;;;;;;;;;;5028684;28;20192;-83
2023/03/19 14:34:36;;;;;;;15.37;13.77;;;;;;;;;;5025532;28;20585;-82
2023/03/19 14:37:03;;;;;;;14.53;12.77;;;;;;;;;;5022702;28;20437;-82
2023/03/19 14:39:31;;;;;;;13.23;11.40;;;;;;;;;;5022948;28;20443;-82